Thunder radar more information blitzortung!


Radar de pluja more information rain snow radar


Visita la nostra xarxa de llocs de meteo:

Template documentation
and downloads

And another site



No particular awareness of the weather is required.    There are no Weather-warnings

Pagina Historial Weather Underground text

Diari Resum Desembre 8, 2017 Unitats:  Tant    Imperial   Mètric
« Previous Dia
SegĂźent Dia »
Diari Setmana Mensual Anual Personalitzada
  Maxima: Minima: Media:
Temperatura: 47.7 °F /  8.7 °C 36.5 °F /  2.5 °C 42.6 °F /  5.9 °C
Punt de rosada: 32.7 °F /  0.4 °C 23.9 °F /  -4.5 °C 29.7 °F /  -1.3 °C
Humitat: 69 % 55 % 60 %
Wind Speed: 8.5 mph /  13.7 km/h - 2.6 mph /  4.2 km/h
RĂ fegues de vent: 8.5 mph /  13.7 km/h - -
Vent:- - SSE
Pression baro: 30.3 in /  1026.0 hPa 30.1 in /  1018.8 hPa -
Precipitacions: 0 in /  0.0 mm    
Historical Graphs
 
 
Dades de taula per Desembre 8, 2017
Temps Temperatura Punt de rosada Pression baro Vent Wind Speed RĂ fegues de vent Humitat Rainfall Rate (Hourly)
00:00 41.4 °F /  5.2 °C 26.8 °F /  -2.9 °C 30.3 in /  1026.0 hPa Calm     56 % 0 in /  0.0 mm
00:01 41.2 °F /  5.1 °C 26.8 °F /  -2.9 °C 30.3 in /  1026.0 hPa SW 2.3 mph /  3.7 km/h 2.3 mph /  3.7 km/h 56 % 0 in /  0.0 mm
00:05 36.5 °F /  2.5 °C 23.9 °F /  -4.5 °C 30.2 in /  1022.9 hPa WSW 1 mph /  1.6 km/h 3 mph /  4.8 km/h 60 % 0 in /  0.0 mm
00:06 41 °F /  5.0 °C 26.4 °F /  -3.1 °C 30.3 in /  1026.0 hPa SW 1.2 mph /  1.9 km/h 1.2 mph /  1.9 km/h 56 % 0 in /  0.0 mm
00:15 36.7 °F /  2.6 °C 24.4 °F /  -4.2 °C 30.2 in /  1022.9 hPa WSW 2 mph /  3.2 km/h 2 mph /  3.2 km/h 61 % 0 in /  0.0 mm
00:25 36.7 °F /  2.6 °C 24.4 °F /  -4.2 °C 30.2 in /  1022.9 hPa WSW 1 mph /  1.6 km/h 2 mph /  3.2 km/h 61 % 0 in /  0.0 mm
00:35 36.5 °F /  2.5 °C 24.3 °F /  -4.3 °C 30.2 in /  1022.9 hPa NW 1 mph /  1.6 km/h 2 mph /  3.2 km/h 61 % 0 in /  0.0 mm
00:45 36.5 °F /  2.5 °C 24.3 °F /  -4.3 °C 30.2 in /  1022.9 hPa North 2 mph /  3.2 km/h 2 mph /  3.2 km/h 61 % 0 in /  0.0 mm
00:55 36.7 °F /  2.6 °C 24.4 °F /  -4.2 °C 30.2 in /  1022.9 hPa NNW 1 mph /  1.6 km/h 2 mph /  3.2 km/h 61 % 0 in /  0.0 mm
01:05 36.7 °F /  2.6 °C 25 °F /  -3.9 °C 30.2 in /  1022.9 hPa Calm   2 mph /  3.2 km/h 62 % 0 in /  0.0 mm
01:25 36.9 °F /  2.7 °C 25 °F /  -3.9 °C 30.2 in /  1022.9 hPa NNE 1 mph /  1.6 km/h 3 mph /  4.8 km/h 62 % 0 in /  0.0 mm
01:35 36.7 °F /  2.6 °C 25 °F /  -3.9 °C 30.2 in /  1022.9 hPa NNE 1 mph /  1.6 km/h 2 mph /  3.2 km/h 62 % 0 in /  0.0 mm
01:45 36.9 °F /  2.7 °C 25 °F /  -3.9 °C 30.2 in /  1022.9 hPa NNE 1 mph /  1.6 km/h 3 mph /  4.8 km/h 62 % 0 in /  0.0 mm
01:55 37 °F /  2.8 °C 25.2 °F /  -3.8 °C 30.2 in /  1022.9 hPa NE 2 mph /  3.2 km/h 3 mph /  4.8 km/h 62 % 0 in /  0.0 mm
02:05 37 °F /  2.8 °C 25.2 °F /  -3.8 °C 30.2 in /  1022.9 hPa NE 2 mph /  3.2 km/h 2 mph /  3.2 km/h 62 % 0 in /  0.0 mm
08:06 37 °F /  2.8 °C 25.2 °F /  -3.8 °C 30.2 in /  1022.9 hPa Calm   0.9 mph /  1.4 km/h 62 % 0 in /  0.0 mm
08:21 37.4 °F /  3.0 °C 25.5 °F /  -3.6 °C 30.2 in /  1022.9 hPa NNE 3.6 mph /  5.8 km/h 3.6 mph /  5.8 km/h 62 % 0 in /  0.0 mm
08:26 37.4 °F /  3.0 °C 25.5 °F /  -3.6 °C 30.2 in /  1022.9 hPa ENE 3.5 mph /  5.6 km/h 3.5 mph /  5.6 km/h 62 % 0 in /  0.0 mm
08:36 37.2 °F /  2.9 °C 25.3 °F /  -3.7 °C 30.2 in /  1022.9 hPa NW 3.8 mph /  6.1 km/h 3.8 mph /  6.1 km/h 62 % 0 in /  0.0 mm
08:38 37.2 °F /  2.9 °C 25.3 °F /  -3.7 °C 30.2 in /  1022.9 hPa West 3.5 mph /  5.6 km/h 3.5 mph /  5.6 km/h 62 % 0 in /  0.0 mm
08:43 37.4 °F /  3.0 °C 25.5 °F /  -3.6 °C 30.2 in /  1022.9 hPa North 4.6 mph /  7.4 km/h 4.6 mph /  7.4 km/h 62 % 0 in /  0.0 mm
08:48 37.6 °F /  3.1 °C 25.7 °F /  -3.5 °C 30.2 in /  1022.9 hPa East 2.3 mph /  3.7 km/h 2.3 mph /  3.7 km/h 62 % 0 in /  0.0 mm
08:53 37.6 °F /  3.1 °C 25.7 °F /  -3.5 °C 30.2 in /  1022.9 hPa NNW 3.5 mph /  5.6 km/h 3.5 mph /  5.6 km/h 62 % 0 in /  0.0 mm
08:58 37.8 °F /  3.2 °C 25.9 °F /  -3.4 °C 30.2 in /  1022.9 hPa NNW 3.5 mph /  5.6 km/h 3.5 mph /  5.6 km/h 62 % 0 in /  0.0 mm
09:03 37.9 °F /  3.3 °C 25.7 °F /  -3.5 °C 30.2 in /  1022.9 hPa North 2.6 mph /  4.2 km/h 2.6 mph /  4.2 km/h 61 % 0 in /  0.0 mm
09:08 38.1 °F /  3.4 °C 25.9 °F /  -3.4 °C 30.2 in /  1022.9 hPa North 2.3 mph /  3.7 km/h 2.3 mph /  3.7 km/h 61 % 0 in /  0.0 mm
09:13 38.3 °F /  3.5 °C 26.1 °F /  -3.3 °C 30.2 in /  1022.9 hPa NNE 4.3 mph /  6.9 km/h 4.3 mph /  6.9 km/h 61 % 0 in /  0.0 mm
09:18 38.3 °F /  3.5 °C 26.1 °F /  -3.3 °C 30.2 in /  1022.9 hPa North 2.6 mph /  4.2 km/h 2.6 mph /  4.2 km/h 61 % 0 in /  0.0 mm
09:23 38.7 °F /  3.7 °C 26.4 °F /  -3.1 °C 30.2 in /  1022.9 hPa NNE 2.4 mph /  3.9 km/h 2.4 mph /  3.9 km/h 61 % 0 in /  0.0 mm
09:28 38.8 °F /  3.8 °C 26.4 °F /  -3.1 °C 30.2 in /  1022.9 hPa SSE 3.5 mph /  5.6 km/h 3.5 mph /  5.6 km/h 61 % 0 in /  0.0 mm
09:33 39.6 °F /  4.2 °C 27.1 °F /  -2.7 °C 30.2 in /  1022.9 hPa East 2.4 mph /  3.9 km/h 2.4 mph /  3.9 km/h 61 % 0 in /  0.0 mm
09:38 39.7 °F /  4.3 °C 27.3 °F /  -2.6 °C 30.2 in /  1022.9 hPa ENE 3.5 mph /  5.6 km/h 3.5 mph /  5.6 km/h 61 % 0 in /  0.0 mm
09:43 40.3 °F /  4.6 °C 27.9 °F /  -2.3 °C 30.2 in /  1022.9 hPa West 3.5 mph /  5.6 km/h 3.5 mph /  5.6 km/h 61 % 0 in /  0.0 mm
09:48 40.3 °F /  4.6 °C 27.9 °F /  -2.3 °C 30.2 in /  1022.9 hPa ESE 5.8 mph /  9.3 km/h 5.8 mph /  9.3 km/h 61 % 0 in /  0.0 mm
09:53 40.3 °F /  4.6 °C 27.5 °F /  -2.5 °C 30.2 in /  1022.9 hPa NNE 2.6 mph /  4.2 km/h 2.6 mph /  4.2 km/h 60 % 0 in /  0.0 mm
09:58 40.5 °F /  4.7 °C 27.7 °F /  -2.4 °C 30.2 in /  1022.9 hPa NNW 3.5 mph /  5.6 km/h 3.5 mph /  5.6 km/h 60 % 0 in /  0.0 mm
10:03 40.5 °F /  4.7 °C 27.7 °F /  -2.4 °C 30.2 in /  1022.9 hPa NNW 2.3 mph /  3.7 km/h 2.3 mph /  3.7 km/h 60 % 0 in /  0.0 mm
10:08 40.6 °F /  4.8 °C 27.9 °F /  -2.3 °C 30.2 in /  1022.9 hPa NNE 2.3 mph /  3.7 km/h 2.3 mph /  3.7 km/h 60 % 0 in /  0.0 mm
10:09 40.6 °F /  4.8 °C 27.9 °F /  -2.3 °C 30.2 in /  1022.9 hPa NNE 2.4 mph /  3.9 km/h 2.4 mph /  3.9 km/h 60 % 0 in /  0.0 mm
10:14 41 °F /  5.0 °C 28.2 °F /  -2.1 °C 30.2 in /  1022.9 hPa NE 2.3 mph /  3.7 km/h   60 % 0 in /  0.0 mm
10:19 41.2 °F /  5.1 °C 28.2 °F /  -2.1 °C 30.2 in /  1022.9 hPa NNW 2.3 mph /  3.7 km/h 2.3 mph /  3.7 km/h 60 % 0 in /  0.0 mm
10:24 41.4 °F /  5.2 °C 28.6 °F /  -1.9 °C 30.2 in /  1022.9 hPa WNW 2.3 mph /  3.7 km/h 2.3 mph /  3.7 km/h 60 % 0 in /  0.0 mm
10:29 41.4 °F /  5.2 °C 28.6 °F /  -1.9 °C 30.2 in /  1022.9 hPa ESE 3.6 mph /  5.8 km/h 3.6 mph /  5.8 km/h 60 % 0 in /  0.0 mm
10:34 41.5 °F /  5.3 °C 28.8 °F /  -1.8 °C 30.2 in /  1022.9 hPa NNE 2.9 mph /  4.7 km/h 2.9 mph /  4.7 km/h 60 % 0 in /  0.0 mm
10:39 41.7 °F /  5.4 °C 28.4 °F /  -2.0 °C 30.2 in /  1022.9 hPa NNE 2.4 mph /  3.9 km/h 2.4 mph /  3.9 km/h 59 % 0 in /  0.0 mm
10:44 41.7 °F /  5.4 °C 28.4 °F /  -2.0 °C 30.2 in /  1022.9 hPa NE 3.5 mph /  5.6 km/h 3.5 mph /  5.6 km/h 59 % 0 in /  0.0 mm
10:49 41.9 °F /  5.5 °C 28.6 °F /  -1.9 °C 30.2 in /  1022.9 hPa NNW 3.5 mph /  5.6 km/h 3.5 mph /  5.6 km/h 59 % 0 in /  0.0 mm
10:54 41.9 °F /  5.5 °C 28.6 °F /  -1.9 °C 30.2 in /  1022.9 hPa WNW 4.6 mph /  7.4 km/h 4.6 mph /  7.4 km/h 59 % 0 in /  0.0 mm
10:59 42.1 °F /  5.6 °C 28.8 °F /  -1.8 °C 30.2 in /  1021.9 hPa NNW 2.3 mph /  3.7 km/h 2.3 mph /  3.7 km/h 59 % 0 in /  0.0 mm
11:04 42.1 °F /  5.6 °C 28.8 °F /  -1.8 °C 30.2 in /  1021.9 hPa NNW 4.6 mph /  7.4 km/h 4.6 mph /  7.4 km/h 59 % 0 in /  0.0 mm
11:09 42.3 °F /  5.7 °C 28.9 °F /  -1.7 °C 30.2 in /  1021.9 hPa NNE 4.7 mph /  7.6 km/h 4.7 mph /  7.6 km/h 59 % 0 in /  0.0 mm
11:14 42.3 °F /  5.7 °C 28.9 °F /  -1.7 °C 30.2 in /  1021.9 hPa NNW 5.8 mph /  9.3 km/h 5.8 mph /  9.3 km/h 59 % 0 in /  0.0 mm
11:19 42.4 °F /  5.8 °C 28.8 °F /  -1.8 °C 30.2 in /  1021.9 hPa ENE 4.3 mph /  6.9 km/h 4.3 mph /  6.9 km/h 58 % 0 in /  0.0 mm
11:24 42.4 °F /  5.8 °C 28.8 °F /  -1.8 °C 30.2 in /  1021.9 hPa NNW 3.5 mph /  5.6 km/h 3.5 mph /  5.6 km/h 58 % 0 in /  0.0 mm
11:29 42.4 °F /  5.8 °C 28.8 °F /  -1.8 °C 30.2 in /  1021.9 hPa NNW 4.6 mph /  7.4 km/h 4.6 mph /  7.4 km/h 58 % 0 in /  0.0 mm
11:34 42.6 °F /  5.9 °C 28.9 °F /  -1.7 °C 30.2 in /  1021.9 hPa South 5.8 mph /  9.3 km/h 5.8 mph /  9.3 km/h 58 % 0 in /  0.0 mm
11:39 42.8 °F /  6.0 °C 28.9 °F /  -1.7 °C 30.2 in /  1021.9 hPa ENE 2.9 mph /  4.7 km/h 2.9 mph /  4.7 km/h 58 % 0 in /  0.0 mm
11:44 42.8 °F /  6.0 °C 28.9 °F /  -1.7 °C 30.2 in /  1021.9 hPa SW 3.5 mph /  5.6 km/h 3.6 mph /  5.8 km/h 58 % 0 in /  0.0 mm
11:49 43 °F /  6.1 °C 29.1 °F /  -1.6 °C 30.2 in /  1021.9 hPa NNE 5.8 mph /  9.3 km/h 5.8 mph /  9.3 km/h 58 % 0 in /  0.0 mm
11:54 43 °F /  6.1 °C 29.1 °F /  -1.6 °C 30.2 in /  1021.9 hPa NNW 3.5 mph /  5.6 km/h 3.5 mph /  5.6 km/h 58 % 0 in /  0.0 mm
11:59 43 °F /  6.1 °C 28.8 °F /  -1.8 °C 30.2 in /  1021.9 hPa ESE 3.5 mph /  5.6 km/h 3.5 mph /  5.6 km/h 57 % 0 in /  0.0 mm
12:04 42.8 °F /  6.0 °C 28.6 °F /  -1.9 °C 30.2 in /  1021.9 hPa NNE 5.8 mph /  9.3 km/h 5.8 mph /  9.3 km/h 57 % 0 in /  0.0 mm
12:09 42.8 °F /  6.0 °C 28.6 °F /  -1.9 °C 30.2 in /  1021.9 hPa NE 4.6 mph /  7.4 km/h 4.6 mph /  7.4 km/h 57 % 0 in /  0.0 mm
12:14 43 °F /  6.1 °C 28.8 °F /  -1.8 °C 30.2 in /  1021.9 hPa West 5.8 mph /  9.3 km/h 5.8 mph /  9.3 km/h 57 % 0 in /  0.0 mm
12:19 43 °F /  6.1 °C 28.8 °F /  -1.8 °C 30.2 in /  1021.9 hPa NNE 4.6 mph /  7.4 km/h 4.6 mph /  7.4 km/h 57 % 0 in /  0.0 mm
12:24 43 °F /  6.1 °C 28.8 °F /  -1.8 °C 30.2 in /  1021.9 hPa ESE 5.8 mph /  9.3 km/h 5.8 mph /  9.3 km/h 57 % 0 in /  0.0 mm
12:29 43.2 °F /  6.2 °C 28.9 °F /  -1.7 °C 30.2 in /  1021.9 hPa NNE 5.6 mph /  9.0 km/h 5.6 mph /  9.0 km/h 57 % 0 in /  0.0 mm
12:34 43.3 °F /  6.3 °C 29.1 °F /  -1.6 °C 30.2 in /  1021.9 hPa NE 4.3 mph /  6.9 km/h 4.3 mph /  6.9 km/h 57 % 0 in /  0.0 mm
12:39 43.5 °F /  6.4 °C 29.3 °F /  -1.5 °C 30.2 in /  1021.9 hPa NE 3.5 mph /  5.6 km/h 3.5 mph /  5.6 km/h 57 % 0 in /  0.0 mm
12:44 43.7 °F /  6.5 °C 29.5 °F /  -1.4 °C 30.2 in /  1021.9 hPa ENE 4.6 mph /  7.4 km/h 4.6 mph /  7.4 km/h 57 % 0 in /  0.0 mm
12:49 43.7 °F /  6.5 °C 29.5 °F /  -1.4 °C 30.2 in /  1021.9 hPa NNE 4.6 mph /  7.4 km/h 4.6 mph /  7.4 km/h 57 % 0 in /  0.0 mm
12:54 43.7 °F /  6.5 °C 29.5 °F /  -1.4 °C 30.2 in /  1021.9 hPa WNW 2.3 mph /  3.7 km/h 2.4 mph /  3.9 km/h 57 % 0 in /  0.0 mm
12:59 43.9 °F /  6.6 °C 29.7 °F /  -1.3 °C 30.2 in /  1021.9 hPa NE 2.3 mph /  3.7 km/h 2.3 mph /  3.7 km/h 57 % 0 in /  0.0 mm
13:04 43.9 °F /  6.6 °C 29.7 °F /  -1.3 °C 30.2 in /  1021.9 hPa ENE 4.6 mph /  7.4 km/h 4.6 mph /  7.4 km/h 57 % 0 in /  0.0 mm
13:09 44.1 °F /  6.7 °C 29.8 °F /  -1.2 °C 30.2 in /  1021.9 hPa North 5.9 mph /  9.5 km/h 5.9 mph /  9.5 km/h 57 % 0 in /  0.0 mm
13:14 44.2 °F /  6.8 °C 30 °F /  -1.1 °C 30.2 in /  1021.9 hPa NNE 4.6 mph /  7.4 km/h 4.6 mph /  7.4 km/h 57 % 0 in /  0.0 mm
13:19 44.4 °F /  6.9 °C 30 °F /  -1.1 °C 30.2 in /  1021.9 hPa East 3.5 mph /  5.6 km/h 3.5 mph /  5.6 km/h 57 % 0 in /  0.0 mm
13:24 44.6 °F /  7.0 °C 30.4 °F /  -0.9 °C 30.2 in /  1021.9 hPa NW 3.8 mph /  6.1 km/h 3.8 mph /  6.1 km/h 57 % 0 in /  0.0 mm
13:29 44.6 °F /  7.0 °C 30.4 °F /  -0.9 °C 30.2 in /  1020.9 hPa NNE 4.6 mph /  7.4 km/h 4.6 mph /  7.4 km/h 57 % 0 in /  0.0 mm
13:34 44.6 °F /  7.0 °C 29.8 °F /  -1.2 °C 30.2 in /  1020.9 hPa ENE 4.6 mph /  7.4 km/h 4.6 mph /  7.4 km/h 56 % 0 in /  0.0 mm
13:44 44.8 °F /  7.1 °C 30 °F /  -1.1 °C 30.2 in /  1020.9 hPa NE 8.5 mph /  13.7 km/h 8.5 mph /  13.7 km/h 56 % 0 in /  0.0 mm
13:49 45 °F /  7.2 °C 30.2 °F /  -1.0 °C 30.2 in /  1020.9 hPa NE 6.9 mph /  11.1 km/h 6.9 mph /  11.1 km/h 56 % 0 in /  0.0 mm
13:54 45 °F /  7.2 °C 30.2 °F /  -1.0 °C 30.2 in /  1020.9 hPa NNE 6.9 mph /  11.1 km/h 6.9 mph /  11.1 km/h 56 % 0 in /  0.0 mm
13:59 45.1 °F /  7.3 °C 30.4 °F /  -0.9 °C 30.2 in /  1020.9 hPa ESE 2.6 mph /  4.2 km/h 3.1 mph /  5.0 km/h 56 % 0 in /  0.0 mm
14:04 45.3 °F /  7.4 °C 30.6 °F /  -0.8 °C 30.2 in /  1020.9 hPa NW 3.5 mph /  5.6 km/h 3.5 mph /  5.6 km/h 56 % 0 in /  0.0 mm
14:09 45.5 °F /  7.5 °C 30.7 °F /  -0.7 °C 30.2 in /  1020.9 hPa NW 4.6 mph /  7.4 km/h 4.6 mph /  7.4 km/h 56 % 0 in /  0.0 mm
14:14 45.7 °F /  7.6 °C 30.9 °F /  -0.6 °C 30.1 in /  1019.9 hPa NNW 5.8 mph /  9.3 km/h 5.8 mph /  9.3 km/h 56 % 0 in /  0.0 mm
14:19 45.7 °F /  7.6 °C 30.9 °F /  -0.6 °C 30.1 in /  1019.9 hPa ENE 2.9 mph /  4.7 km/h 2.9 mph /  4.7 km/h 56 % 0 in /  0.0 mm
14:24 45.7 °F /  7.6 °C 30.9 °F /  -0.6 °C 30.1 in /  1019.9 hPa ENE 5.8 mph /  9.3 km/h 5.8 mph /  9.3 km/h 56 % 0 in /  0.0 mm
14:29 45.7 °F /  7.6 °C 30.9 °F /  -0.6 °C 30.2 in /  1020.9 hPa NNE 4.9 mph /  7.9 km/h 4.9 mph /  7.9 km/h 56 % 0 in /  0.0 mm
14:34 45.7 °F /  7.6 °C 30.9 °F /  -0.6 °C 30.2 in /  1020.9 hPa NNW 5.8 mph /  9.3 km/h 5.8 mph /  9.3 km/h 56 % 0 in /  0.0 mm
14:39 45.9 °F /  7.7 °C 30.9 °F /  -0.6 °C 30.2 in /  1020.9 hPa ENE 5.8 mph /  9.3 km/h 5.8 mph /  9.3 km/h 56 % 0 in /  0.0 mm
14:44 46.2 °F /  7.9 °C 31.5 °F /  -0.3 °C 30.2 in /  1020.9 hPa ENE 3.5 mph /  5.6 km/h 3.5 mph /  5.6 km/h 56 % 0 in /  0.0 mm
14:49 46.6 °F /  8.1 °C 31.6 °F /  -0.2 °C 30.2 in /  1020.9 hPa NNW 1.2 mph /  1.9 km/h 1.2 mph /  1.9 km/h 56 % 0 in /  0.0 mm
14:54 46.8 °F /  8.2 °C 31.8 °F /  -0.1 °C 30.2 in /  1020.9 hPa NNE 2.2 mph /  3.5 km/h 2.2 mph /  3.5 km/h 56 % 0 in /  0.0 mm
15:04 47.1 °F /  8.4 °C 32.2 °F /  0.1 °C 30.1 in /  1019.9 hPa ENE 4 mph /  6.4 km/h 4 mph /  6.4 km/h 56 % 0 in /  0.0 mm
15:09 47.1 °F /  8.4 °C 32.2 °F /  0.1 °C 30.1 in /  1019.9 hPa NE 4.9 mph /  7.9 km/h 4.9 mph /  7.9 km/h 56 % 0 in /  0.0 mm
15:14 47.1 °F /  8.4 °C 32.2 °F /  0.1 °C 30.2 in /  1020.9 hPa North 1.6 mph /  2.6 km/h 1.6 mph /  2.6 km/h 56 % 0 in /  0.0 mm
15:19 47.3 °F /  8.5 °C 32.4 °F /  0.2 °C 30.2 in /  1020.9 hPa NNE 5.8 mph /  9.3 km/h 5.8 mph /  9.3 km/h 56 % 0 in /  0.0 mm
15:24 47.3 °F /  8.5 °C 32.4 °F /  0.2 °C 30.2 in /  1020.9 hPa NE 8.1 mph /  13.0 km/h 8.1 mph /  13.0 km/h 56 % 0 in /  0.0 mm
15:29 47.5 °F /  8.6 °C 32.5 °F /  0.3 °C 30.1 in /  1019.9 hPa NNE 5.8 mph /  9.3 km/h 5.8 mph /  9.3 km/h 56 % 0 in /  0.0 mm
15:34 47.7 °F /  8.7 °C 32.7 °F /  0.4 °C 30.1 in /  1019.9 hPa NNE 4.6 mph /  7.4 km/h 4.6 mph /  7.4 km/h 56 % 0 in /  0.0 mm
15:39 47.7 °F /  8.7 °C 32.7 °F /  0.4 °C 30.1 in /  1019.9 hPa NNE 3.5 mph /  5.6 km/h 3.5 mph /  5.6 km/h 56 % 0 in /  0.0 mm
15:44 47.7 °F /  8.7 °C 32.7 °F /  0.4 °C 30.2 in /  1020.9 hPa NNE 4.6 mph /  7.4 km/h 4.6 mph /  7.4 km/h 56 % 0 in /  0.0 mm
15:49 47.7 °F /  8.7 °C 32.7 °F /  0.4 °C 30.2 in /  1020.9 hPa ENE 6.9 mph /  11.1 km/h 6.9 mph /  11.1 km/h 56 % 0 in /  0.0 mm
15:54 47.5 °F /  8.6 °C 32.2 °F /  0.1 °C 30.2 in /  1020.9 hPa North 3.1 mph /  5.0 km/h 3.1 mph /  5.0 km/h 55 % 0 in /  0.0 mm
15:59 47.5 °F /  8.6 °C 32.5 °F /  0.3 °C 30.2 in /  1020.9 hPa NNE 3.3 mph /  5.3 km/h 3.3 mph /  5.3 km/h 56 % 0 in /  0.0 mm
16:04 47.5 °F /  8.6 °C 32.5 °F /  0.3 °C 30.2 in /  1020.9 hPa NNW 3.5 mph /  5.6 km/h 3.5 mph /  5.6 km/h 56 % 0 in /  0.0 mm
16:09 47.3 °F /  8.5 °C 32.4 °F /  0.2 °C 30.2 in /  1020.9 hPa WNW 2.3 mph /  3.7 km/h 2.3 mph /  3.7 km/h 56 % 0 in /  0.0 mm
16:14 47.3 °F /  8.5 °C 32.4 °F /  0.2 °C 30.2 in /  1020.9 hPa North 2.3 mph /  3.7 km/h 2.3 mph /  3.7 km/h 56 % 0 in /  0.0 mm
16:19 47.3 °F /  8.5 °C 32.4 °F /  0.2 °C 30.2 in /  1020.9 hPa NNE 4 mph /  6.4 km/h 4 mph /  6.4 km/h 56 % 0 in /  0.0 mm
16:24 47.3 °F /  8.5 °C 32.4 °F /  0.2 °C 30.2 in /  1020.9 hPa NNW 2.3 mph /  3.7 km/h 2.3 mph /  3.7 km/h 56 % 0 in /  0.0 mm
16:29 47.5 °F /  8.6 °C 32.5 °F /  0.3 °C 30.2 in /  1020.9 hPa NNE 2.3 mph /  3.7 km/h 2.3 mph /  3.7 km/h 56 % 0 in /  0.0 mm
16:34 47.3 °F /  8.5 °C 32.4 °F /  0.2 °C 30.2 in /  1020.9 hPa West 2.3 mph /  3.7 km/h 2.3 mph /  3.7 km/h 56 % 0 in /  0.0 mm
16:39 47.3 °F /  8.5 °C 32.4 °F /  0.2 °C 30.2 in /  1020.9 hPa NNE 4.6 mph /  7.4 km/h 4.6 mph /  7.4 km/h 56 % 0 in /  0.0 mm
16:44 47.1 °F /  8.4 °C 32.2 °F /  0.1 °C 30.2 in /  1020.9 hPa ENE 1.4 mph /  2.3 km/h 1.4 mph /  2.3 km/h 56 % 0 in /  0.0 mm
16:49 46.9 °F /  8.3 °C 32 °F /  0.0 °C 30.2 in /  1020.9 hPa NNE 3.5 mph /  5.6 km/h 3.5 mph /  5.6 km/h 56 % 0 in /  0.0 mm
16:54 46.8 °F /  8.2 °C 31.8 °F /  -0.1 °C 30.2 in /  1020.9 hPa ENE 2.3 mph /  3.7 km/h 2.3 mph /  3.7 km/h 56 % 0 in /  0.0 mm
16:59 46.6 °F /  8.1 °C 31.6 °F /  -0.2 °C 30.2 in /  1020.9 hPa NNE 2.4 mph /  3.9 km/h 2.4 mph /  3.9 km/h 56 % 0 in /  0.0 mm
17:04 46.4 °F /  8.0 °C 31.5 °F /  -0.3 °C 30.2 in /  1020.9 hPa NNW 2.3 mph /  3.7 km/h 2.3 mph /  3.7 km/h 56 % 0 in /  0.0 mm
17:09 46.4 °F /  8.0 °C 31.5 °F /  -0.3 °C 30.2 in /  1020.9 hPa WNW 1.2 mph /  1.9 km/h   56 % 0 in /  0.0 mm
17:14 46.2 °F /  7.9 °C 31.5 °F /  -0.3 °C 30.2 in /  1020.9 hPa North 1.2 mph /  1.9 km/h   56 % 0 in /  0.0 mm
17:19 46 °F /  7.8 °C 31.6 °F /  -0.2 °C 30.2 in /  1020.9 hPa NNW 1.2 mph /  1.9 km/h   57 % 0 in /  0.0 mm
17:24 45.7 °F /  7.6 °C 31.3 °F /  -0.4 °C 30.2 in /  1020.9 hPa NNE 1.2 mph /  1.9 km/h   57 % 0 in /  0.0 mm
17:29 45.5 °F /  7.5 °C 31.1 °F /  -0.5 °C 30.2 in /  1020.9 hPa ENE 1.2 mph /  1.9 km/h   57 % 0 in /  0.0 mm
17:34 45.3 °F /  7.4 °C 30.9 °F /  -0.6 °C 30.2 in /  1020.9 hPa NE 1.2 mph /  1.9 km/h 1.2 mph /  1.9 km/h 57 % 0 in /  0.0 mm
17:39 45.3 °F /  7.4 °C 30.9 °F /  -0.6 °C 30.2 in /  1020.9 hPa NNE 1.2 mph /  1.9 km/h 1.2 mph /  1.9 km/h 57 % 0 in /  0.0 mm
17:44 45.1 °F /  7.3 °C 31.3 °F /  -0.4 °C 30.2 in /  1021.9 hPa NE 1.2 mph /  1.9 km/h   58 % 0 in /  0.0 mm
17:49 45 °F /  7.2 °C 31.1 °F /  -0.5 °C 30.2 in /  1021.9 hPa NNW 2.3 mph /  3.7 km/h 2.3 mph /  3.7 km/h 58 % 0 in /  0.0 mm
17:54 45 °F /  7.2 °C 31.1 °F /  -0.5 °C 30.2 in /  1021.9 hPa Calm     58 % 0 in /  0.0 mm
17:59 44.6 °F /  7.0 °C 30.7 °F /  -0.7 °C 30.2 in /  1021.9 hPa SW 2 mph /  3.2 km/h 2 mph /  3.2 km/h 58 % 0 in /  0.0 mm
18:04 44.4 °F /  6.9 °C 30.6 °F /  -0.8 °C 30.2 in /  1021.9 hPa SSW 2.3 mph /  3.7 km/h 2.3 mph /  3.7 km/h 58 % 0 in /  0.0 mm
18:09 44.4 °F /  6.9 °C 30.6 °F /  -0.8 °C 30.2 in /  1021.9 hPa ESE 2.3 mph /  3.7 km/h 2.3 mph /  3.7 km/h 58 % 0 in /  0.0 mm
18:14 44.8 °F /  7.1 °C 31.3 °F /  -0.4 °C 30.2 in /  1020.9 hPa WSW 2.9 mph /  4.7 km/h 2.9 mph /  4.7 km/h 59 % 0 in /  0.0 mm
18:19 44.2 °F /  6.8 °C 30.7 °F /  -0.7 °C 30.2 in /  1020.9 hPa Calm     59 % 0 in /  0.0 mm
18:24 44.4 °F /  6.9 °C 30.9 °F /  -0.6 °C 30.2 in /  1020.9 hPa SW 1.2 mph /  1.9 km/h 1.2 mph /  1.9 km/h 59 % 0 in /  0.0 mm
18:29 44.4 °F /  6.9 °C 30.9 °F /  -0.6 °C 30.2 in /  1020.9 hPa WNW 1.4 mph /  2.3 km/h   59 % 0 in /  0.0 mm
18:34 44.6 °F /  7.0 °C 31.1 °F /  -0.5 °C 30.2 in /  1020.9 hPa WNW 2 mph /  3.2 km/h   59 % 0 in /  0.0 mm
18:39 44.6 °F /  7.0 °C 31.1 °F /  -0.5 °C 30.2 in /  1020.9 hPa Calm     59 % 0 in /  0.0 mm
18:44 44.6 °F /  7.0 °C 31.6 °F /  -0.2 °C 30.2 in /  1020.9 hPa WNW 1.2 mph /  1.9 km/h   60 % 0 in /  0.0 mm
18:49 44.6 °F /  7.0 °C 31.6 °F /  -0.2 °C 30.2 in /  1020.9 hPa West 1.2 mph /  1.9 km/h 1.2 mph /  1.9 km/h 60 % 0 in /  0.0 mm
18:54 44.6 °F /  7.0 °C 31.6 °F /  -0.2 °C 30.2 in /  1020.9 hPa NNE 1.2 mph /  1.9 km/h   60 % 0 in /  0.0 mm
18:59 44.6 °F /  7.0 °C 31.6 °F /  -0.2 °C 30.2 in /  1021.9 hPa NE 1.4 mph /  2.3 km/h 1.4 mph /  2.3 km/h 60 % 0 in /  0.0 mm
19:04 44.6 °F /  7.0 °C 31.6 °F /  -0.2 °C 30.2 in /  1021.9 hPa WNW 2.3 mph /  3.7 km/h 2.3 mph /  3.7 km/h 60 % 0 in /  0.0 mm
19:05 44.8 °F /  7.1 °C 31.6 °F /  -0.2 °C 30.2 in /  1021.9 hPa NNW 1 mph /  1.6 km/h 2 mph /  3.2 km/h 60 % 0 in /  0.0 mm
19:10 44.8 °F /  7.1 °C 31.6 °F /  -0.2 °C 30.2 in /  1021.9 hPa Calm     60 % 0 in /  0.0 mm
19:15 44.4 °F /  6.9 °C 31.5 °F /  -0.3 °C 30.2 in /  1020.9 hPa WSW 1.2 mph /  1.9 km/h 1.2 mph /  1.9 km/h 60 % 0 in /  0.0 mm
19:25 43.7 °F /  6.5 °C 31.3 °F /  -0.4 °C 30.2 in /  1020.9 hPa Calm   2 mph /  3.2 km/h 61 % 0 in /  0.0 mm
19:30 44.2 °F /  6.8 °C 31.6 °F /  -0.2 °C 30.2 in /  1020.9 hPa WNW 1.4 mph /  2.3 km/h 1.4 mph /  2.3 km/h 61 % 0 in /  0.0 mm
19:35 44.1 °F /  6.7 °C 31.5 °F /  -0.3 °C 30.2 in /  1020.9 hPa Calm   1 mph /  1.6 km/h 61 % 0 in /  0.0 mm
19:40 43.5 °F /  6.4 °C 30.9 °F /  -0.6 °C 30.2 in /  1020.9 hPa Calm     61 % 0 in /  0.0 mm
19:45 43.2 °F /  6.2 °C 30.6 °F /  -0.8 °C 30.2 in /  1020.9 hPa WSW 2.3 mph /  3.7 km/h 2.3 mph /  3.7 km/h 61 % 0 in /  0.0 mm
19:50 43.2 °F /  6.2 °C 30.6 °F /  -0.8 °C 30.2 in /  1020.9 hPa WSW 2.3 mph /  3.7 km/h 2.3 mph /  3.7 km/h 61 % 0 in /  0.0 mm
19:55 43 °F /  6.1 °C 30.4 °F /  -0.9 °C 30.2 in /  1020.9 hPa WSW 2.3 mph /  3.7 km/h 2.3 mph /  3.7 km/h 61 % 0 in /  0.0 mm
20:00 43 °F /  6.1 °C 30.4 °F /  -0.9 °C 30.2 in /  1020.9 hPa Calm     61 % 0 in /  0.0 mm
20:05 42.8 °F /  6.0 °C 30.7 °F /  -0.7 °C 30.2 in /  1020.9 hPa NNW 1.2 mph /  1.9 km/h 1.2 mph /  1.9 km/h 62 % 0 in /  0.0 mm
20:10 42.8 °F /  6.0 °C 30.7 °F /  -0.7 °C 30.2 in /  1020.9 hPa North 1.2 mph /  1.9 km/h 1.2 mph /  1.9 km/h 62 % 0 in /  0.0 mm
20:15 42.8 °F /  6.0 °C 30.7 °F /  -0.7 °C 30.2 in /  1020.9 hPa NW 1.2 mph /  1.9 km/h   62 % 0 in /  0.0 mm
20:20 43 °F /  6.1 °C 30.7 °F /  -0.7 °C 30.2 in /  1020.9 hPa NW 1.2 mph /  1.9 km/h   62 % 0 in /  0.0 mm
20:25 43 °F /  6.1 °C 31.3 °F /  -0.4 °C 30.2 in /  1020.9 hPa NNE 2.3 mph /  3.7 km/h 2.3 mph /  3.7 km/h 63 % 0 in /  0.0 mm
20:30 42.8 °F /  6.0 °C 30.7 °F /  -0.7 °C 30.2 in /  1020.9 hPa NNE 2.9 mph /  4.7 km/h 2.9 mph /  4.7 km/h 62 % 0 in /  0.0 mm
20:35 41.9 °F /  5.5 °C 29.8 °F /  -1.2 °C 30.2 in /  1020.9 hPa ESE 2.3 mph /  3.7 km/h 2.3 mph /  3.7 km/h 62 % 0 in /  0.0 mm
20:40 41.9 °F /  5.5 °C 30.2 °F /  -1.0 °C 30.2 in /  1020.9 hPa NNE 2.6 mph /  4.2 km/h 2.6 mph /  4.2 km/h 63 % 0 in /  0.0 mm
20:45 41.9 °F /  5.5 °C 30.2 °F /  -1.0 °C 30.2 in /  1020.9 hPa NNE 2.3 mph /  3.7 km/h 2.3 mph /  3.7 km/h 63 % 0 in /  0.0 mm
20:50 42.1 °F /  5.6 °C 30.4 °F /  -0.9 °C 30.2 in /  1020.9 hPa Calm     63 % 0 in /  0.0 mm
20:55 42.1 °F /  5.6 °C 30.7 °F /  -0.7 °C 30.2 in /  1020.9 hPa Calm     64 % 0 in /  0.0 mm
21:00 42.1 °F /  5.6 °C 30.7 °F /  -0.7 °C 30.2 in /  1020.9 hPa North 1.2 mph /  1.9 km/h 1.2 mph /  1.9 km/h 64 % 0 in /  0.0 mm
21:05 41.9 °F /  5.5 °C 30.6 °F /  -0.8 °C 30.2 in /  1020.9 hPa Calm     64 % 0 in /  0.0 mm
21:10 42.1 °F /  5.6 °C 30.7 °F /  -0.7 °C 30.2 in /  1020.9 hPa NNE 1.2 mph /  1.9 km/h 1.2 mph /  1.9 km/h 64 % 0 in /  0.0 mm
21:15 42.1 °F /  5.6 °C 30.7 °F /  -0.7 °C 30.2 in /  1020.9 hPa Calm     64 % 0 in /  0.0 mm
21:20 42.1 °F /  5.6 °C 30.7 °F /  -0.7 °C 30.2 in /  1020.9 hPa NNW 0.9 mph /  1.4 km/h   64 % 0 in /  0.0 mm
21:25 42.1 °F /  5.6 °C 30.7 °F /  -0.7 °C 30.2 in /  1020.9 hPa Calm     64 % 0 in /  0.0 mm
21:40 41.4 °F /  5.2 °C 30 °F /  -1.1 °C 30.1 in /  1019.9 hPa NNE 2.3 mph /  3.7 km/h 2.3 mph /  3.7 km/h 64 % 0 in /  0.0 mm
21:45 41.4 °F /  5.2 °C 30.6 °F /  -0.8 °C 30.2 in /  1020.9 hPa WSW 1.2 mph /  1.9 km/h 1.2 mph /  1.9 km/h 65 % 0 in /  0.0 mm
21:50 41.4 °F /  5.2 °C 30.6 °F /  -0.8 °C 30.2 in /  1020.9 hPa WSW 1.6 mph /  2.6 km/h   65 % 0 in /  0.0 mm
21:55 41.5 °F /  5.3 °C 30.6 °F /  -0.8 °C 30.2 in /  1020.9 hPa WSW 1.4 mph /  2.3 km/h 1.4 mph /  2.3 km/h 65 % 0 in /  0.0 mm
22:00 41.5 °F /  5.3 °C 30.6 °F /  -0.8 °C 30.1 in /  1019.9 hPa East 1.2 mph /  1.9 km/h   65 % 0 in /  0.0 mm
22:05 41.5 °F /  5.3 °C 30.6 °F /  -0.8 °C 30.1 in /  1019.9 hPa WSW 1.2 mph /  1.9 km/h 1.2 mph /  1.9 km/h 65 % 0 in /  0.0 mm
22:10 41.5 °F /  5.3 °C 30.6 °F /  -0.8 °C 30.1 in /  1019.9 hPa East 1.2 mph /  1.9 km/h   65 % 0 in /  0.0 mm
22:15 41.5 °F /  5.3 °C 30.6 °F /  -0.8 °C 30.1 in /  1019.9 hPa SW 1.2 mph /  1.9 km/h 1.2 mph /  1.9 km/h 65 % 0 in /  0.0 mm
22:20 41.5 °F /  5.3 °C 30.9 °F /  -0.6 °C 30.1 in /  1019.9 hPa SW 1.6 mph /  2.6 km/h   66 % 0 in /  0.0 mm
22:25 41.4 °F /  5.2 °C 30.6 °F /  -0.8 °C 30.1 in /  1019.9 hPa Calm     65 % 0 in /  0.0 mm
22:30 41.4 °F /  5.2 °C 30.7 °F /  -0.7 °C 30.1 in /  1019.9 hPa Calm     66 % 0 in /  0.0 mm
22:35 41.2 °F /  5.1 °C 30.4 °F /  -0.9 °C 30.1 in /  1019.9 hPa SW 2.4 mph /  3.9 km/h 2.4 mph /  3.9 km/h 65 % 0 in /  0.0 mm
22:40 40.8 °F /  4.9 °C 30.4 °F /  -0.9 °C 30.1 in /  1019.9 hPa Calm     66 % 0 in /  0.0 mm
22:45 40.6 °F /  4.8 °C 30.2 °F /  -1.0 °C 30.1 in /  1019.9 hPa WSW 1.2 mph /  1.9 km/h 1.2 mph /  1.9 km/h 66 % 0 in /  0.0 mm
22:48 40.6 °F /  4.8 °C 30.2 °F /  -1.0 °C 30.1 in /  1019.9 hPa West 1.2 mph /  1.9 km/h   66 % 0 in /  0.0 mm
22:53 40.6 °F /  4.8 °C 30.2 °F /  -1.0 °C 30.1 in /  1019.9 hPa Calm     66 % 0 in /  0.0 mm
22:58 40.5 °F /  4.7 °C 30 °F /  -1.1 °C 30.1 in /  1019.9 hPa NW 1.6 mph /  2.6 km/h 1.6 mph /  2.6 km/h 66 % 0 in /  0.0 mm
23:03 40.5 °F /  4.7 °C 30 °F /  -1.1 °C 30.1 in /  1019.9 hPa NW 1.2 mph /  1.9 km/h   66 % 0 in /  0.0 mm
23:08 40.5 °F /  4.7 °C 30 °F /  -1.1 °C 30.1 in /  1019.9 hPa Calm     66 % 0 in /  0.0 mm
23:13 40.5 °F /  4.7 °C 30.4 °F /  -0.9 °C 30.1 in /  1019.9 hPa Calm     67 % 0 in /  0.0 mm
23:18 40.3 °F /  4.6 °C 30.2 °F /  -1.0 °C 30.1 in /  1019.9 hPa WNW 1.2 mph /  1.9 km/h   67 % 0 in /  0.0 mm
23:23 40.1 °F /  4.5 °C 29.7 °F /  -1.3 °C 30.1 in /  1019.9 hPa WSW 1.2 mph /  1.9 km/h 1.2 mph /  1.9 km/h 66 % 0 in /  0.0 mm
23:28 40.3 °F /  4.6 °C 29.8 °F /  -1.2 °C 30.1 in /  1018.8 hPa West 2.4 mph /  3.9 km/h 2.4 mph /  3.9 km/h 66 % 0 in /  0.0 mm
23:33 40.1 °F /  4.5 °C 29.7 °F /  -1.3 °C 30.1 in /  1018.8 hPa WSW 2.3 mph /  3.7 km/h 2.4 mph /  3.9 km/h 66 % 0 in /  0.0 mm
23:38 39.6 °F /  4.2 °C 29.5 °F /  -1.4 °C 30.1 in /  1018.8 hPa WSW 2.3 mph /  3.7 km/h 2.3 mph /  3.7 km/h 67 % 0 in /  0.0 mm
23:43 39.7 °F /  4.3 °C 30 °F /  -1.1 °C 30.1 in /  1019.9 hPa NNE 2.3 mph /  3.7 km/h 2.3 mph /  3.7 km/h 68 % 0 in /  0.0 mm
23:48 39.7 °F /  4.3 °C 30 °F /  -1.1 °C 30.1 in /  1019.9 hPa SW 1.2 mph /  1.9 km/h   68 % 0 in /  0.0 mm
23:53 39.6 °F /  4.2 °C 30.2 °F /  -1.0 °C 30.1 in /  1019.9 hPa SSE 2.3 mph /  3.7 km/h   69 % 0 in /  0.0 mm
23:58 39.6 °F /  4.2 °C 30.2 °F /  -1.0 °C 30.1 in /  1019.9 hPa NE 1.2 mph /  1.9 km/h 1.2 mph /  1.9 km/h 69 % 0 in /  0.0 mm
Meteo Sesrovires
Elogis d' Weather Underground - 3.5 mb

Guio original per  Jim McMurry - jmcmurry@mwt.net Adaptat per a la plantilla per  Wim van der Kuil - Leuven-Template.eu

Trobareu la nostra informacio del temps tambe a:

Weather Underground

AWEKAS